الصفحة الرئيسية
METAR-TAF:

METAR-TAF

مطار :

Podor, السنغال

دائرة عرض: 16-39N, خط طول: 014-58W, ارتفاع: 6 متر

مراقبة الطقس الحالي

تاريخ ووقت الإصدار 57 دقيقة قبل الساعة 17:00UTC
ريح 4 عقدة من الشمال الشرقي
درجة الحرارة 40°درجة مئوية
الرطوبة 18%
ضغط 1008 hPa
الرؤية: 8000 متر

METAR: GOSP 161700Z 04004KT 8000 NSC 40/11 Q1008

زمن: 17:57 (17:57 UTC)


TAF: مفقودة

أرصاد الطقس والتوقعات من أكثر من 4000 مطار (تقارير الطقس للمطار METAR والتنبؤ بالطقس بالمطارTAF).

المحطات المتاحة هي النقط الصفراء والحمراء على الخريطة.

حرك المؤشر فوق النقطة لمعرفة اسم المحطة.

ثم انقر لمعرفة أرصاد وتوقعات الطقس.

لتغيير الخارطة: اضغط على الأزرار الخضراء مع رمز الصليب الأسود للتكبير. على الزر الأخضر مع شرطة للتصغير، أو على الأسهم الخضراء للخرائط المجاورة.


METAR-TAF: